Time;durP1;ratioP1;P1;durP2;ratioP2;P2;SDS_P1;SDS_P2;PMS_P1;PMS_P2;Temp;Humidity;BMP_temperature;BMP_pressure;BME280_temperature;BME280_humidity;BME280_pressure;Samples;Min_cycle;Max_cycle;Signal;HPM_P1;HPM_P2
2021/08/10 00:00:44;;;;;;;11.52;9.13;;;614.90;2432.00;;;;;;5030361;28;20029;-56
2021/08/10 00:03:10;;;;;;;12.40;9.02;;;614.90;2432.00;;;;;;5030103;28;20092;-57
2021/08/10 00:05:36;;;;;;;11.43;8.73;;;614.90;2432.00;;;;;;5029848;28;20029;-56
2021/08/10 00:08:01;;;;;;;12.73;8.93;;;614.90;2432.00;;;;;;5029832;28;20039;-55
2021/08/10 00:10:27;;;;;;;9.27;7.97;;;614.90;2432.00;;;;;;5029934;28;20026;-56
2021/08/10 00:12:54;;;;;;;10.55;9.27;;;614.80;2432.00;;;;;;5030038;28;20048;-56
2021/08/10 00:15:20;;;;;;;10.52;8.82;;;614.80;2432.00;;;;;;5030303;28;20081;-56
2021/08/10 00:17:46;;;;;;;14.05;8.75;;;614.70;2432.00;;;;;;5030116;28;20029;-56
2021/08/10 00:20:12;;;;;;;10.85;9.60;;;614.70;2432.00;;;;;;5030213;28;20364;-56
2021/08/10 00:22:39;;;;;;;9.43;7.72;;;614.60;2432.00;;;;;;5029835;28;20566;-55
2021/08/10 00:25:05;;;;;;;10.40;9.35;;;614.50;2432.00;;;;;;5030057;28;20380;-55
2021/08/10 00:27:31;;;;;;;9.82;8.82;;;614.40;2432.00;;;;;;5029906;28;20045;-56
2021/08/10 00:29:56;;;;;;;12.70;10.25;;;614.40;2432.00;;;;;;5029770;28;20041;-56
2021/08/10 00:32:22;;;;;;;10.00;8.93;;;614.50;2432.00;;;;;;5030024;28;20033;-56
2021/08/10 00:34:48;;;;;;;11.18;9.88;;;614.50;2432.00;;;;;;5029832;28;20026;-56
2021/08/10 00:37:14;;;;;;;10.57;9.48;;;614.40;2432.00;;;;;;5030041;28;20022;-55
2021/08/10 00:39:39;;;;;;;10.45;8.95;;;614.40;2432.00;;;;;;5029884;28;20030;-55
2021/08/10 00:42:05;;;;;;;11.57;8.43;;;589.70;2432.00;;;;;;5029531;28;20460;-56
2021/08/10 00:44:31;;;;;;;11.32;10.00;;;589.60;2432.00;;;;;;5029860;28;20091;-54
2021/08/10 00:46:57;;;;;;;13.20;10.10;;;589.60;2432.00;;;;;;5029584;28;20022;-56
2021/08/10 00:49:23;;;;;;;10.93;9.27;;;589.50;2432.00;;;;;;5029728;28;20068;-55
2021/08/10 00:51:51;;;;;;;15.55;9.93;;;589.50;2432.00;;;;;;5029433;28;20033;-56
2021/08/10 00:54:17;;;;;;;13.35;9.98;;;589.60;2432.00;;;;;;5029604;28;20033;-56
2021/08/10 00:56:42;;;;;;;17.08;10.00;;;589.70;2432.00;;;;;;5029831;28;20025;-56
2021/08/10 00:59:08;;;;;;;12.27;9.95;;;614.40;2432.00;;;;;;5029441;28;20064;-56
2021/08/10 01:01:34;;;;;;;10.63;8.70;;;614.50;2432.00;;;;;;5029646;28;20018;-56
2021/08/10 01:03:59;;;;;;;12.20;8.93;;;614.60;2432.00;;;;;;5029345;28;20029;-56
2021/08/10 01:07:03;;;;;;;10.30;8.65;;;614.40;2432.00;;;;;;5029409;28;20018;-56
2021/08/10 01:09:52;;;;;;;11.27;10.13;;;589.70;2432.00;;;;;;5029321;28;20109;-56
2021/08/10 01:13:14;;;;;;;13.15;9.02;;;589.70;2432.00;;;;;;5029387;28;20494;-57
2021/08/10 01:15:46;;;;;;;10.98;9.27;;;589.60;2432.00;;;;;;5022534;28;20038;-56
2021/08/10 01:18:24;;;;;;;13.50;9.32;;;589.60;2432.00;;;;;;5029491;28;20021;-56
2021/08/10 01:21:39;;;;;;;12.82;9.45;;;589.50;2432.00;;;;;;5032166;28;20025;-56
2021/08/10 01:24:32;;;;;;;9.80;8.73;;;589.40;2432.00;;;;;;4933945;29;20079;-57
2021/08/10 01:27:31;;;;;;;10.73;9.20;;;589.40;2432.00;;;;;;4933784;29;20027;-56
2021/08/10 01:30:19;;;;;;;10.50;9.40;;;589.30;2432.00;;;;;;4933621;29;20418;-58
2021/08/10 01:32:47;;;;;;;13.25;9.20;;;589.30;2432.00;;;;;;4933966;29;20074;-55
2021/08/10 01:35:16;;;;;;;12.07;9.02;;;589.30;2432.00;;;;;;4933594;29;20514;-56
2021/08/10 01:37:47;;;;;;;10.10;9.10;;;589.20;2432.00;;;;;;4933837;29;20032;-56
2021/08/10 01:40:14;;;;;;;12.30;9.05;;;589.20;2432.00;;;;;;4933704;29;20483;-55
2021/08/10 01:42:41;;;;;;;11.55;10.02;;;589.20;2432.00;;;;;;4933361;29;20078;-56
2021/08/10 01:45:08;;;;;;;13.82;9.82;;;589.10;2432.00;;;;;;4933365;29;20364;-56
2021/08/10 01:47:35;;;;;;;9.52;8.63;;;589.30;2432.00;;;;;;4933408;29;20040;-56
2021/08/10 01:50:04;;;;;;;10.23;8.98;;;589.30;2432.00;;;;;;4933282;29;20450;-58
2021/08/10 01:52:29;;;;;;;10.13;9.00;;;589.40;2432.00;;;;;;4932996;29;20498;-57
2021/08/10 01:54:56;;;;;;;12.13;9.85;;;589.40;2432.00;;;;;;4994568;28;20073;-57
2021/08/10 01:57:24;;;;;;;13.45;9.32;;;589.40;2432.00;;;;;;5032811;28;20033;-56
2021/08/10 01:59:53;;;;;;;11.18;9.50;;;589.30;2432.00;;;;;;5032371;28;20021;-56
2021/08/10 02:02:20;;;;;;;13.50;10.13;;;589.20;2432.00;;;;;;5032372;28;20021;-57
2021/08/10 02:04:48;;;;;;;13.27;10.70;;;589.00;2432.00;;;;;;5032170;28;20029;-56
2021/08/10 02:07:14;;;;;;;14.18;10.02;;;589.00;2432.00;;;;;;5032670;28;20029;-56
2021/08/10 02:09:40;;;;;;;9.23;8.35;;;589.00;2432.00;;;;;;5032224;28;20040;-57
2021/08/10 02:12:07;;;;;;;12.38;9.85;;;589.00;2432.00;;;;;;5032237;28;20040;-56
2021/08/10 02:14:34;;;;;;;16.00;9.57;;;588.80;2432.00;;;;;;5032332;28;20034;-56
2021/08/10 02:17:03;;;;;;;9.50;8.60;;;588.80;2432.00;;;;;;5032158;28;20025;-56
2021/08/10 02:19:29;;;;;;;10.77;9.65;;;588.80;2432.00;;;;;;5031920;28;20025;-55
2021/08/10 02:22:06;;;;;;;12.23;9.07;;;588.80;2432.00;;;;;;5031926;28;20025;-56
2021/08/10 02:24:37;;;;;;;18.77;9.90;;;588.80;2432.00;;;;;;5032104;28;20369;-56
2021/08/10 02:27:07;;;;;;;11.20;9.82;;;564.10;2432.00;;;;;;5032098;28;20473;-56
2021/08/10 02:29:39;;;;;;;17.27;9.07;;;564.10;2432.00;;;;;;5031947;28;20038;-56
2021/08/10 02:32:07;;;;;;;12.82;9.73;;;564.10;2432.00;;;;;;5031583;28;20029;-58
2021/08/10 02:34:35;;;;;;;10.77;9.68;;;564.10;2432.00;;;;;;5031811;28;20057;-54
2021/08/10 02:37:02;;;;;;;11.00;9.80;;;588.80;2432.00;;;;;;5032144;28;20026;-56
2021/08/10 02:39:29;;;;;;;11.15;9.80;;;588.80;2432.00;;;;;;5031693;28;20025;-55
2021/08/10 02:41:56;;;;;;;10.00;9.10;;;588.80;2432.00;;;;;;5031607;28;20493;-56
2021/08/10 02:44:25;;;;;;;14.55;9.52;;;588.90;2432.00;;;;;;5031884;28;20201;-56
2021/08/10 02:46:51;;;;;;;10.45;9.30;;;588.90;2432.00;;;;;;5031695;28;20138;-56
2021/08/10 02:49:16;;;;;;;9.27;8.35;;;588.80;2432.00;;;;;;5031421;28;20037;-56
2021/08/10 02:51:42;;;;;;;10.27;9.27;;;588.80;2432.00;;;;;;5031515;28;20018;-56
2021/08/10 02:54:08;;;;;;;11.90;10.50;;;588.80;2432.00;;;;;;5031103;28;20567;-55
2021/08/10 02:56:41;;;;;;;17.27;10.43;;;564.10;2432.00;;;;;;5031602;28;20021;-56
2021/08/10 02:59:41;;;;;;;13.70;9.10;;;564.10;2432.00;;;;;;5031410;28;20025;-56
2021/08/10 03:02:12;;;;;;;11.75;9.55;;;564.00;2432.00;;;;;;4931868;29;20127;-56
2021/08/10 03:04:45;;;;;;;13.05;10.18;;;563.90;2432.00;;;;;;4931613;29;20487;-56
2021/08/10 03:07:11;;;;;;;;;;;564.00;2432.00;;;;;;4932413;29;20430;-56
2021/08/10 03:09:37;;;;;;;12.38;9.93;;;564.10;2432.00;;;;;;4931594;29;20336;-56
2021/08/10 03:12:05;;;;;;;15.10;10.82;;;564.10;2432.00;;;;;;4931800;29;20043;-55
2021/08/10 03:14:33;;;;;;;11.48;9.52;;;564.10;2432.00;;;;;;4932174;29;20071;-56
2021/08/10 03:17:01;;;;;;;9.32;8.38;;;588.80;2432.00;;;;;;4931718;29;20031;-55
2021/08/10 03:19:28;;;;;;;11.18;10.07;;;588.90;2432.00;;;;;;4931430;29;20071;-56
2021/08/10 03:21:55;;;;;;;10.23;9.23;;;588.90;2432.00;;;;;;4931578;29;20031;-56
2021/08/10 03:24:23;;;;;;;12.18;9.52;;;588.90;2432.00;;;;;;4931662;29;20398;-56
2021/08/10 03:26:51;;;;;;;12.77;9.38;;;588.90;2432.00;;;;;;4931498;29;20020;-57
2021/08/10 03:29:21;;;;;;;10.27;9.18;;;588.90;2432.00;;;;;;4931364;29;20051;-56
2021/08/10 03:31:47;;;;;;;13.05;9.63;;;588.80;2432.00;;;;;;4931511;29;20080;-55
2021/08/10 03:34:15;;;;;;;11.30;8.18;;;588.90;2432.00;;;;;;4931476;29;20031;-56
2021/08/10 03:36:42;;;;;;;15.50;9.10;;;588.90;2432.00;;;;;;4942268;28;20491;-56
2021/08/10 03:39:08;;;;;;;9.93;8.95;;;589.00;2432.00;;;;;;5030577;28;20021;-56
2021/08/10 03:41:34;;;;;;;11.50;9.77;;;589.00;2432.00;;;;;;5030364;28;20025;-56
2021/08/10 03:44:00;;;;;;;11.25;9.30;;;589.10;2432.00;;;;;;5030177;28;20036;-56
2021/08/10 03:46:30;;;;;;;10.70;9.70;;;589.00;2432.00;;;;;;5030305;28;20057;-56
2021/08/10 03:48:56;;;;;;;12.25;9.23;;;589.10;2432.00;;;;;;5030256;28;20487;-56
2021/08/10 03:51:22;;;;;;;13.80;9.50;;;589.00;2432.00;;;;;;5030538;28;20030;-56
2021/08/10 03:53:48;;;;;;;11.93;9.88;;;589.10;2432.00;;;;;;5030399;28;20037;-56
2021/08/10 03:56:16;;;;;;;10.60;9.35;;;589.20;2432.00;;;;;;5030820;28;20108;-54
2021/08/10 03:58:42;;;;;;;14.32;9.50;;;589.10;2432.00;;;;;;5030594;28;20445;-55
2021/08/10 04:01:09;;;;;;;12.93;9.65;;;589.10;2432.00;;;;;;5030198;28;20467;-55
2021/08/10 04:03:36;;;;;;;11.75;10.55;;;589.10;2432.00;;;;;;5030297;28;20054;-55
2021/08/10 04:06:05;;;;;;;13.43;9.23;;;589.30;2432.00;;;;;;5030206;28;20064;-54
2021/08/10 04:08:31;;;;;;;11.90;10.00;;;589.20;2432.00;;;;;;5029917;28;20026;-55
2021/08/10 04:10:58;;;;;;;14.85;10.90;;;589.20;2432.00;;;;;;5029874;28;20494;-55
2021/08/10 04:13:24;;;;;;;14.43;10.65;;;589.40;2432.00;;;;;;5030143;28;20026;-54
2021/08/10 04:15:54;;;;;;;11.93;9.50;;;589.40;2432.00;;;;;;5029982;28;20033;-54
2021/08/10 04:18:22;;;;;;;13.27;9.85;;;589.50;2432.00;;;;;;5029920;28;20029;-55
2021/08/10 04:20:53;;;;;;;12.00;9.50;;;589.70;2432.00;;;;;;5029834;28;20048;-54
2021/08/10 04:23:19;;;;;;;15.32;8.75;;;614.50;2432.00;;;;;;5029645;28;20152;-54
2021/08/10 04:25:45;;;;;;;12.38;9.18;;;614.60;2432.00;;;;;;5030466;28;20565;-54
2021/08/10 04:28:12;;;;;;;12.38;9.02;;;614.80;2432.00;;;;;;5029778;28;20400;-55
2021/08/10 04:30:39;;;;;;;12.35;9.05;;;614.90;2432.00;;;;;;5029750;28;20033;-55
2021/08/10 04:33:05;;;;;;;10.05;8.10;;;615.00;2432.00;;;;;;5029906;28;20032;-55
2021/08/10 04:35:31;;;;;;;14.85;9.20;;;615.00;2432.00;;;;;;5029765;28;20479;-54
2021/08/10 04:37:58;;;;;;;10.35;8.82;;;615.10;2432.00;;;;;;5029722;28;20026;-54
2021/08/10 04:40:27;;;;;;;13.73;9.15;;;615.30;2432.00;;;;;;5029855;28;20060;-54
2021/08/10 04:42:56;;;;;;;12.52;8.80;;;640.10;2432.00;;;;;;5030001;28;20484;-57
2021/08/10 04:45:23;;;;;;;13.43;9.70;;;640.20;2432.00;;;;;;5030043;28;20026;-61
2021/08/10 04:47:49;;;;;;;13.75;9.50;;;640.50;2432.00;;;;;;5029832;28;20059;-54
2021/08/10 04:50:15;;;;;;;10.93;8.98;;;640.90;2432.00;;;;;;5029809;28;20116;-56
2021/08/10 04:52:40;;;;;;;17.08;8.57;;;665.60;2432.00;;;;;;5029563;28;20026;-54
2021/08/10 04:55:07;;;;;;;10.82;8.93;;;665.70;2432.00;;;;;;5033004;28;20103;-55
2021/08/10 04:57:33;;;;;;;13.05;8.93;;;665.90;2432.00;;;;;;5033659;28;20550;-53
2021/08/10 05:00:00;;;;;;;13.73;9.32;;;716.80;2432.00;;;;;;5033739;28;20026;-60
2021/08/10 05:02:26;;;;;;;10.48;8.32;;;768.20;2432.00;;;;;;5033500;28;20022;-64
2021/08/10 05:04:52;;;;;;;11.15;8.07;;;794.00;2304.00;;;;;;5033430;28;20535;-53
2021/08/10 05:07:18;;;;;;;10.00;8.48;;;819.50;2201.60;;;;;;5033441;28;20030;-57
2021/08/10 05:09:43;;;;;;;9.88;8.85;;;819.90;2150.40;;;;;;5033493;28;20048;-55
2021/08/10 05:12:09;;;;;;;11.27;9.13;;;845.70;2048.00;;;;;;5033309;28;20099;-54
2021/08/10 05:14:36;;;;;;;11.55;9.13;;;871.30;1920.00;;;;;;5033480;28;20022;-57
2021/08/10 05:17:02;;;;;;;11.65;10.10;;;896.30;1843.20;;;;;;5033576;28;20021;-60
2021/08/10 05:19:28;;;;;;;10.23;9.32;;;871.30;1843.20;;;;;;5033086;28;20084;-57
2021/08/10 05:21:53;;;;;;;9.65;8.68;;;896.60;1792.00;;;;;;5033160;28;20033;-60
2021/08/10 05:24:19;;;;;;;10.45;9.25;;;922.00;1740.80;;;;;;5033030;28;20029;-55
2021/08/10 05:26:45;;;;;;;13.65;9.70;;;947.50;1664.00;;;;;;5033229;28;20025;-53
2021/08/10 05:29:10;;;;;;;14.10;8.68;;;973.10;1587.20;;;;;;5032728;28;20041;-54
2021/08/10 05:31:36;;;;;;;12.35;8.68;;;973.20;1536.00;;;;;;5032943;28;20031;-53
2021/08/10 05:34:03;;;;;;;10.13;9.07;;;973.70;1484.80;;;;;;5033088;28;20375;-57
2021/08/10 05:36:29;;;;;;;8.98;8.13;;;998.70;1459.20;;;;;;5032870;28;20100;-55
2021/08/10 05:38:54;;;;;;;10.10;9.18;;;998.60;1433.60;;;;;;5033079;28;20543;-53
2021/08/10 05:41:22;;;;;;;10.25;9.05;;;998.60;1433.60;;;;;;5032763;28;20022;-64
2021/08/10 05:43:48;;;;;;;9.63;8.80;;;998.90;1408.00;;;;;;5032891;28;20036;-53
2021/08/10 05:46:14;;;;;;;8.50;7.60;;;1024.20;1356.80;;;;;;5032947;28;20022;-53
2021/08/10 05:48:40;;;;;;;10.35;9.32;;;1024.90;1305.60;;;;;;5032526;28;20542;-56
2021/08/10 05:51:06;;;;;;;9.88;9.07;;;1024.60;1305.60;;;;;;5032699;28;20101;-52
2021/08/10 05:53:35;;;;;;;9.90;8.90;;;1024.40;1331.20;;;;;;5032634;28;20140;-53
2021/08/10 05:56:01;;;;;;;10.32;8.77;;;1049.80;1305.60;;;;;;5032950;28;20109;-54
2021/08/10 05:58:27;;;;;;;11.02;10.00;;;1075.40;1228.80;;;;;;5032460;28;20029;-52
2021/08/10 06:00:53;;;;;;;13.88;11.63;;;1075.70;1228.80;;;;;;5032625;28;20033;-53
2021/08/10 06:03:19;;;;;;;12.55;11.35;;;1075.50;1203.20;;;;;;5032345;28;20029;-54
2021/08/10 06:05:45;;;;;;;14.85;13.35;;;1075.40;1228.80;;;;;;5031625;28;20037;-53
2021/08/10 06:08:11;;;;;;;13.05;11.82;;;1075.80;1203.20;;;;;;5032433;28;20025;-54
2021/08/10 06:10:37;;;;;;;10.88;9.88;;;1075.70;1203.20;;;;;;5032476;28;20022;-56
2021/08/10 06:13:03;;;;;;;13.60;12.25;;;1126.40;1177.60;;;;;;5032462;28;20102;-54
2021/08/10 06:15:29;;;;;;;16.70;13.07;;;1101.30;1152.00;;;;;;5032090;28;20037;-54
2021/08/10 06:17:55;;;;;;;13.30;12.15;;;1127.00;1152.00;;;;;;5032098;28;20088;-57
2021/08/10 06:20:22;;;;;;;16.08;14.73;;;1152.20;1100.80;;;;;;5032086;28;20026;-57
2021/08/10 06:22:48;;;;;;;13.90;12.93;;;1177.60;1075.20;;;;;;5031832;28;20025;-57
2021/08/10 06:25:14;;;;;;;12.80;11.35;;;1177.80;1049.60;;;;;;5032258;28;20036;-57
2021/08/10 06:27:40;;;;;;;13.20;12.30;;;1177.70;1049.60;;;;;;5032084;28;20041;-57
2021/08/10 06:30:08;;;;;;;14.13;13.23;;;1178.00;1024.00;;;;;;5031828;28;20038;-57
2021/08/10 06:32:34;;;;;;;13.70;12.45;;;1177.70;1024.00;;;;;;5031942;28;20087;-57
2021/08/10 06:35:00;;;;;;;12.60;11.73;;;1177.70;1024.00;;;;;;5031891;28;20025;-54
2021/08/10 06:37:26;;;;;;;13.77;12.43;;;1203.30;1024.00;;;;;;5031617;28;20029;-55
2021/08/10 06:39:51;;;;;;;13.27;12.35;;;1203.30;1024.00;;;;;;5031815;28;20029;-54
2021/08/10 06:42:19;;;;;;;13.95;12.85;;;1178.30;998.40;;;;;;5031729;28;20022;-55
2021/08/10 06:44:45;;;;;;;15.05;13.85;;;1178.50;998.40;;;;;;5032055;28;20835;-55
2021/08/10 06:47:11;;;;;;;14.38;13.35;;;1203.30;998.40;;;;;;5031703;28;20025;-55
2021/08/10 06:49:38;;;;;;;14.63;13.40;;;1203.40;998.40;;;;;;5031313;28;20045;-57
2021/08/10 06:52:05;;;;;;;17.55;12.77;;;1228.80;972.80;;;;;;5031473;28;20061;-67
2021/08/10 06:54:32;;;;;;;14.20;13.30;;;1228.80;972.80;;;;;;5031539;28;20026;-59
2021/08/10 06:57:04;;;;;;;15.40;14.32;;;1229.30;947.20;;;;;;5031568;28;20051;-59
2021/08/10 06:59:30;;;;;;;15.05;14.13;;;1204.10;947.20;;;;;;5031503;28;20075;-63
2021/08/10 07:01:56;;;;;;;15.07;13.70;;;1178.00;998.40;;;;;;5013499;28;20108;-60
2021/08/10 07:04:22;;;;;;;14.10;13.05;;;1152.50;1024.00;;;;;;5031370;28;20025;-61
2021/08/10 07:06:47;;;;;;;13.15;12.25;;;1178.20;998.40;;;;;;5031185;28;20032;-62
2021/08/10 07:09:15;;;;;;;15.48;14.48;;;1178.20;972.80;;;;;;5031219;28;20495;-62
2021/08/10 07:11:42;;;;;;;13.90;12.68;;;1152.50;1024.00;;;;;;5031167;28;20021;-56
2021/08/10 07:14:14;;;;;;;16.23;14.82;;;1203.30;972.80;;;;;;5030927;28;20026;-58
2021/08/10 07:16:44;;;;;;;15.43;14.50;;;1178.30;972.80;;;;;;5030187;28;20059;-59
2021/08/10 07:19:10;;;;;;;15.38;14.15;;;1178.10;947.20;;;;;;5030621;28;20116;-60
2021/08/10 07:21:36;;;;;;;14.95;13.65;;;1203.60;947.20;;;;;;5030760;28;20117;-60
2021/08/10 07:24:02;;;;;;;15.38;14.07;;;1228.90;947.20;;;;;;5031058;28;20032;-56
2021/08/10 07:26:28;;;;;;;15.43;14.38;;;1229.70;896.00;;;;;;5030960;28;20049;-60
2021/08/10 07:28:55;;;;;;;14.90;13.95;;;1229.50;896.00;;;;;;5030985;28;20053;-56
2021/08/10 07:31:21;;;;;;;14.40;13.05;;;1254.80;896.00;;;;;;5030946;28;20113;-57
2021/08/10 07:33:46;;;;;;;15.00;14.00;;;1228.90;921.60;;;;;;5030789;28;20357;-57
2021/08/10 07:36:12;;;;;;;16.83;15.27;;;1203.20;972.80;;;;;;5030744;28;20112;-62
2021/08/10 07:38:38;;;;;;;18.60;16.85;;;1203.70;947.20;;;;;;5030425;28;20025;-57
2021/08/10 07:41:04;;;;;;;17.73;16.05;;;1178.10;972.80;;;;;;5030672;28;20108;-57
2021/08/10 07:43:30;;;;;;;16.55;15.10;;;1178.20;947.20;;;;;;5030536;28;20026;-57
2021/08/10 07:45:56;;;;;;;16.48;14.70;;;1178.00;972.80;;;;;;5030623;28;20571;-56
2021/08/10 07:48:21;;;;;;;17.10;15.50;;;1152.60;998.40;;;;;;5030466;28;20503;-66
2021/08/10 07:50:50;;;;;;;15.32;13.70;;;1177.60;998.40;;;;;;5030395;28;20486;-60
2021/08/10 07:53:19;;;;;;;18.85;14.00;;;1177.60;998.40;;;;;;5030180;28;20595;-59
2021/08/10 07:55:46;;;;;;;14.68;13.05;;;1178.50;947.20;;;;;;5030516;28;20532;-61
2021/08/10 07:58:12;;;;;;;14.80;13.50;;;1203.60;947.20;;;;;;5030502;28;20026;-63
2021/08/10 08:00:37;;;;;;;15.45;14.18;;;1178.00;947.20;;;;;;5030214;28;20029;-56
2021/08/10 08:03:03;;;;;;;14.55;13.27;;;1203.90;921.60;;;;;;5030532;28;20037;-71
2021/08/10 08:05:29;;;;;;;14.70;13.50;;;1178.50;921.60;;;;;;5030131;28;20025;-57
2021/08/10 08:07:55;;;;;;;14.60;13.32;;;1203.80;921.60;;;;;;5030213;28;20380;-57
2021/08/10 08:10:21;;;;;;;15.00;13.70;;;1178.20;921.60;;;;;;5030139;28;20046;-56
2021/08/10 08:12:46;;;;;;;14.38;13.32;;;1229.40;896.00;;;;;;5030131;28;20021;-57
2021/08/10 08:15:12;;;;;;;13.38;12.05;;;1229.50;896.00;;;;;;5030219;28;20380;-56
2021/08/10 08:17:38;;;;;;;13.63;12.52;;;1229.40;896.00;;;;;;5029850;28;20029;-56
2021/08/10 08:20:05;;;;;;;15.45;14.30;;;1178.20;921.60;;;;;;5030019;28;20029;-56
2021/08/10 08:22:30;;;;;;;14.27;13.07;;;1203.40;921.60;;;;;;5029985;28;20038;-58
2021/08/10 08:24:56;;;;;;;12.15;11.05;;;1203.30;921.60;;;;;;5029770;28;20026;-59
2021/08/10 08:27:22;;;;;;;13.05;11.85;;;1228.80;921.60;;;;;;5029757;28;20387;-62
2021/08/10 08:29:48;;;;;;;16.38;13.77;;;1178.10;921.60;;;;;;5029496;28;20033;-57
2021/08/10 08:32:14;;;;;;;13.20;11.95;;;1152.70;947.20;;;;;;5030013;28;20036;-56
2021/08/10 08:34:39;;;;;;;14.82;12.15;;;1178.10;921.60;;;;;;5029846;28;20052;-57
2021/08/10 08:37:05;;;;;;;13.98;11.23;;;1152.70;947.20;;;;;;5029789;28;20022;-57
2021/08/10 08:39:32;;;;;;;12.23;10.15;;;;;;;;;;5029762;28;20029;-59
2021/08/10 08:42:00;;;;;;;12.35;8.88;;;1075.80;1049.60;;;;;;5029674;28;20021;-56
2021/08/10 08:44:26;;;;;;;10.93;8.38;;;1050.10;1075.20;;;;;;5029747;28;20430;-57
2021/08/10 08:46:54;;;;;;;9.93;8.48;;;1024.90;1100.80;;;;;;5029851;28;20057;-57
2021/08/10 08:49:22;;;;;;;8.45;7.60;;;999.30;1126.40;;;;;;5029627;28;20475;-56
2021/08/10 08:51:49;;;;;;;10.10;7.63;;;998.50;1177.60;;;;;;5029564;28;20026;-57
2021/08/10 08:54:15;;;;;;;9.95;8.60;;;973.50;1177.60;;;;;;5029891;28;20034;-58
2021/08/10 08:56:41;;;;;;;8.90;7.80;;;973.20;1203.20;;;;;;5029906;28;20033;-56
2021/08/10 08:59:08;;;;;;;12.25;7.88;;;973.20;1228.80;;;;;;5029600;28;20395;-56
2021/08/10 09:01:36;;;;;;;12.13;8.23;;;947.90;1228.80;;;;;;5029689;28;20030;-56
2021/08/10 09:04:07;;;;;;;19.77;8.02;;;947.70;1254.40;;;;;;5029851;28;20021;-59
2021/08/10 09:06:33;;;;;;;9.68;7.75;;;948.10;1280.00;;;;;;5029513;28;20117;-59
2021/08/10 09:09:27;;;;;;;9.57;7.88;;;972.80;1280.00;;;;;;5029285;28;20124;-60
2021/08/10 09:11:59;;;;;;;10.55;7.65;;;947.60;1254.40;;;;;;5029818;28;20108;-57
2021/08/10 09:14:41;;;;;;;8.00;6.75;;;947.50;1280.00;;;;;;5029560;28;20041;-60
2021/08/10 09:17:23;;;;;;;9.60;8.65;;;947.60;1254.40;;;;;;5029425;28;20040;-55
2021/08/10 09:19:53;;;;;;;12.93;9.45;;;947.20;1280.00;;;;;;5029246;28;20092;-56
2021/08/10 09:22:26;;;;;;;10.40;7.05;;;922.30;1305.60;;;;;;5029232;28;20029;-56
2021/08/10 09:25:05;;;;;;;9.55;8.27;;;922.10;1305.60;;;;;;5029412;28;20032;-56
2021/08/10 09:27:38;;;;;;;7.68;6.90;;;896.80;1331.20;;;;;;5029218;28;20503;-56
2021/08/10 09:30:08;;;;;;;10.63;7.68;;;896.90;1331.20;;;;;;5029239;28;20045;-56
2021/08/10 09:32:34;;;;;;;7.53;6.72;;;921.90;1356.80;;;;;;5029668;28;20091;-56
2021/08/10 09:35:09;;;;;;;9.25;6.65;;;922.00;1382.40;;;;;;5029279;28;20029;-56
2021/08/10 09:37:36;;;;;;;8.68;6.97;;;922.20;1331.20;;;;;;5029228;28;20387;-56
2021/08/10 09:40:26;;;;;;;11.63;7.93;;;922.00;1331.20;;;;;;5029345;28;20083;-56
2021/08/10 09:42:52;;;;;;;11.50;8.88;;;922.00;1356.80;;;;;;5033334;28;20022;-56
2021/08/10 09:45:17;;;;;;;12.35;9.43;;;922.20;1356.80;;;;;;5032912;28;20380;-56
2021/08/10 09:47:43;;;;;;;10.90;9.02;;;922.00;1356.80;;;;;;5032945;28;20025;-56
2021/08/10 09:50:23;;;;;;;12.75;8.63;;;921.80;1356.80;;;;;;5032560;28;20124;-53
2021/08/10 09:52:49;;;;;;;11.75;8.25;;;921.80;1356.80;;;;;;5032464;28;20431;-54
2021/08/10 09:55:17;;;;;;;13.55;10.93;;;921.90;1356.80;;;;;;5032628;28;20061;-55
2021/08/10 09:57:59;;;;;;;9.98;8.98;;;922.00;1382.40;;;;;;5032582;28;20084;-59
2021/08/10 10:00:39;;;;;;;10.30;9.18;;;922.00;1356.80;;;;;;5032651;28;20523;-57
2021/08/10 10:03:20;;;;;;;8.68;7.97;;;922.20;1356.80;;;;;;5032624;28;20037;-56
2021/08/10 10:05:47;;;;;;;10.30;9.27;;;922.00;1382.40;;;;;;5032355;28;20029;-56
2021/08/10 10:08:17;;;;;;;9.45;8.48;;;922.10;1382.40;;;;;;5032471;28;20092;-56
2021/08/10 10:10:43;;;;;;;14.07;9.80;;;922.30;1331.20;;;;;;5031753;28;20353;-64
2021/08/10 10:13:17;;;;;;;11.43;9.05;;;922.00;1356.80;;;;;;5030236;28;20021;-55
2021/08/10 10:15:44;;;;;;;15.23;9.07;;;922.00;1382.40;;;;;;5030751;28;20030;-62
2021/08/10 10:18:12;;;;;;;12.65;10.00;;;922.00;1356.80;;;;;;5030430;28;20057;-66
2021/08/10 10:20:45;;;;;;;8.65;7.85;;;922.00;1356.80;;;;;;5030382;28;20391;-57
2021/08/10 10:23:38;;;;;;;12.63;9.18;;;922.30;1356.80;;;;;;5030603;28;20107;-54
2021/08/10 10:26:06;;;;;;;8.60;7.80;;;922.20;1356.80;;;;;;5025661;28;20045;-57
2021/08/10 10:28:33;;;;;;;9.00;8.10;;;922.30;1331.20;;;;;;5030322;28;20133;-57
2021/08/10 10:31:00;;;;;;;11.68;8.52;;;922.00;1331.20;;;;;;5030261;28;20151;-67
2021/08/10 10:33:27;;;;;;;9.32;7.50;;;921.70;1356.80;;;;;;5030488;28;20831;-56
2021/08/10 10:35:54;;;;;;;9.07;7.97;;;896.80;1356.80;;;;;;5030416;28;20022;-62
2021/08/10 10:38:20;;;;;;;10.88;8.38;;;921.60;1382.40;;;;;;5029967;28;20037;-60
2021/08/10 10:40:46;;;;;;;8.35;7.45;;;921.70;1331.20;;;;;;5030061;28;20035;-58
2021/08/10 10:43:13;;;;;;;10.23;7.38;;;921.70;1331.20;;;;;;5030280;28;20092;-56
2021/08/10 10:45:43;;;;;;;9.63;7.57;;;921.90;1305.60;;;;;;5029909;28;20383;-59
2021/08/10 10:48:26;;;;;;;9.23;6.72;;;921.70;1331.20;;;;;;5029979;28;20033;-61
2021/08/10 10:51:13;;;;;;;9.20;6.25;;;896.90;1305.60;;;;;;5030063;28;20034;-60
2021/08/10 10:53:41;;;;;;;11.07;7.60;;;896.50;1331.20;;;;;;5029508;28;20037;-58
2021/08/10 10:56:25;;;;;;;9.95;7.38;;;896.50;1331.20;;;;;;5029787;28;20415;-57
2021/08/10 10:58:53;;;;;;;8.90;7.97;;;896.50;1356.80;;;;;;5030170;28;20604;-61
2021/08/10 11:01:31;;;;;;;8.45;7.15;;;896.50;1331.20;;;;;;5029637;28;20024;-57
2021/08/10 11:04:03;;;;;;;8.63;6.57;;;;;;;;;;5029739;28;20033;-55
2021/08/10 11:06:30;;;;;;;9.98;8.02;;;;;;;;;;5028973;28;20025;-56
2021/08/10 11:08:57;;;;;;;7.65;6.65;;;;;;;;;;5029520;28;20041;-57
2021/08/10 11:11:41;;;;;;;8.20;6.95;;;;;;;;;;5029865;28;20152;-57
2021/08/10 11:14:27;;;;;;;10.80;7.15;;;;;;;;;;5029488;28;20056;-56
2021/08/10 11:17:11;;;;;;;8.93;6.25;;;;;;;;;;5029577;28;20034;-58
2021/08/10 11:19:38;;;;;;;9.70;7.00;;;;;;;;;;5029034;28;20916;-56
2021/08/10 11:22:16;;;;;;;7.35;6.65;;;;;;;;;;5029379;28;20729;-56
2021/08/10 11:24:45;;;;;;;9.48;6.90;;;;;;;;;;5029373;28;20026;-57
2021/08/10 11:27:30;;;;;;;12.05;6.72;;;;;;;;;;5029276;28;20033;-60
2021/08/10 11:29:56;;;;;;;11.63;7.15;;;;;;;;;;5029256;28;20396;-57
2021/08/10 11:32:35;;;;;;;8.02;7.20;;;;;;;;;;5028878;28;20021;-57
2021/08/10 11:35:20;;;;;;;7.60;6.80;;;;;;;;;;5029373;28;20022;-56
2021/08/10 11:38:06;;;;;;;8.40;7.60;;;;;;;;;;5028966;28;20030;-62
2021/08/10 11:40:52;;;;;;;11.38;6.65;;;;;;;;;;5029417;28;20025;-59
2021/08/10 11:43:19;;;;;;;8.35;6.68;;;;;;;;;;5028795;28;20029;-58
2021/08/10 11:45:46;;;;;;;10.40;6.82;;;;;;;;;;5028758;28;20053;-57
2021/08/10 11:48:12;;;;;;;9.90;6.90;;;;;;;;;;5028966;28;20022;-60
2021/08/10 11:50:37;;;;;;;8.98;7.30;;;922.20;1280.00;;;;;;5028686;28;20032;-62
2021/08/10 11:53:04;;;;;;;9.35;7.00;;;922.10;1228.80;;;;;;5028764;28;20026;-57
2021/08/10 11:55:35;;;;;;;7.88;7.10;;;922.30;1203.20;;;;;;5028801;28;20044;-59
2021/08/10 11:58:07;;;;;;;7.95;6.80;;;922.30;1203.20;;;;;;5028375;28;20022;-60
2021/08/10 12:00:35;;;;;;;8.80;6.60;;;922.00;1254.40;;;;;;5028795;28;20025;-64
2021/08/10 12:03:04;;;;;;;8.23;5.50;;;921.90;1228.80;;;;;;5028209;28;20594;-57
2021/08/10 12:05:31;;;;;;;7.35;6.10;;;896.90;1228.80;;;;;;5028432;28;20634;-56
2021/08/10 12:08:01;;;;;;;8.20;6.32;;;896.90;1203.20;;;;;;5028441;28;20024;-66
2021/08/10 12:10:30;;;;;;;8.63;6.13;;;896.90;1228.80;;;;;;5027781;28;20041;-56
2021/08/10 12:13:00;;;;;;;8.43;6.78;;;896.80;1203.20;;;;;;5028528;28;20026;-62
2021/08/10 12:15:43;;;;;;;9.30;5.95;;;896.90;1228.80;;;;;;5028205;28;20033;-56
2021/08/10 12:18:10;;;;;;;8.30;6.28;;;896.90;1254.40;;;;;;5030491;28;20026;-56
2021/08/10 12:20:36;;;;;;;9.20;6.07;;;896.70;1228.80;;;;;;5030215;28;20048;-56
2021/08/10 12:23:04;;;;;;;9.65;5.95;;;896.80;1254.40;;;;;;5029995;28;20108;-61
2021/08/10 12:25:31;;;;;;;7.88;6.22;;;896.80;1228.80;;;;;;5029946;28;20025;-56